sensor_id;sensor_type;location;lat;lon;timestamp;P1;durP1;ratioP1;P2;durP2;ratioP2
51616;SDS011;37697;52.588;13.394;2023-07-22T00:04:32;3.60;;;3.10;;
51616;SDS011;37697;52.588;13.394;2023-07-22T00:09:37;3.90;;;3.30;;
51616;SDS011;37697;52.588;13.394;2023-07-22T00:14:45;4.40;;;3.30;;
51616;SDS011;37697;52.588;13.394;2023-07-22T00:19:50;4.80;;;3.70;;
51616;SDS011;37697;52.588;13.394;2023-07-22T00:24:56;5.10;;;4.00;;
51616;SDS011;37697;52.588;13.394;2023-07-22T00:30:04;9.10;;;4.30;;
51616;SDS011;37697;52.588;13.394;2023-07-22T00:35:11;5.20;;;4.20;;
51616;SDS011;37697;52.588;13.394;2023-07-22T00:40:17;4.70;;;3.70;;
51616;SDS011;37697;52.588;13.394;2023-07-22T00:45:23;4.80;;;4.10;;
51616;SDS011;37697;52.588;13.394;2023-07-22T00:50:28;6.20;;;5.10;;
51616;SDS011;37697;52.588;13.394;2023-07-22T00:55:34;6.00;;;4.80;;
51616;SDS011;37697;52.588;13.394;2023-07-22T01:00:42;5.80;;;5.20;;
51616;SDS011;37697;52.588;13.394;2023-07-22T01:05:48;9.60;;;4.80;;
51616;SDS011;37697;52.588;13.394;2023-07-22T01:10:56;5.00;;;4.40;;
51616;SDS011;37697;52.588;13.394;2023-07-22T01:16:03;7.10;;;4.90;;
51616;SDS011;37697;52.588;13.394;2023-07-22T01:21:09;6.00;;;5.20;;
51616;SDS011;37697;52.588;13.394;2023-07-22T01:26:15;5.90;;;5.30;;
51616;SDS011;37697;52.588;13.394;2023-07-22T01:31:21;5.30;;;4.80;;
51616;SDS011;37697;52.588;13.394;2023-07-22T01:36:26;5.60;;;4.80;;
51616;SDS011;37697;52.588;13.394;2023-07-22T01:41:32;6.00;;;5.00;;
51616;SDS011;37697;52.588;13.394;2023-07-22T01:46:38;5.30;;;4.70;;
51616;SDS011;37697;52.588;13.394;2023-07-22T01:51:43;6.60;;;4.50;;
51616;SDS011;37697;52.588;13.394;2023-07-22T01:56:49;5.60;;;4.30;;
51616;SDS011;37697;52.588;13.394;2023-07-22T02:01:55;5.50;;;5.00;;
51616;SDS011;37697;52.588;13.394;2023-07-22T02:07:00;6.30;;;4.90;;
51616;SDS011;37697;52.588;13.394;2023-07-22T02:12:06;6.40;;;5.20;;
51616;SDS011;37697;52.588;13.394;2023-07-22T02:17:12;7.20;;;5.40;;
51616;SDS011;37697;52.588;13.394;2023-07-22T02:22:18;6.30;;;4.60;;
51616;SDS011;37697;52.588;13.394;2023-07-22T02:27:23;8.10;;;5.30;;
51616;SDS011;37697;52.588;13.394;2023-07-22T02:32:29;6.20;;;5.40;;
51616;SDS011;37697;52.588;13.394;2023-07-22T02:37:35;5.40;;;4.20;;
51616;SDS011;37697;52.588;13.394;2023-07-22T02:42:41;8.80;;;5.10;;
51616;SDS011;37697;52.588;13.394;2023-07-22T02:47:47;5.50;;;4.20;;
51616;SDS011;37697;52.588;13.394;2023-07-22T02:52:52;4.70;;;4.00;;
51616;SDS011;37697;52.588;13.394;2023-07-22T02:57:58;4.80;;;4.30;;
51616;SDS011;37697;52.588;13.394;2023-07-22T03:03:03;5.30;;;3.90;;
51616;SDS011;37697;52.588;13.394;2023-07-22T03:08:09;7.70;;;4.40;;
51616;SDS011;37697;52.588;13.394;2023-07-22T03:13:14;9.30;;;5.00;;
51616;SDS011;37697;52.588;13.394;2023-07-22T03:18:20;6.10;;;3.40;;
51616;SDS011;37697;52.588;13.394;2023-07-22T03:23:26;4.20;;;3.20;;
51616;SDS011;37697;52.588;13.394;2023-07-22T03:28:31;4.90;;;3.50;;
51616;SDS011;37697;52.588;13.394;2023-07-22T03:33:37;5.00;;;3.60;;
51616;SDS011;37697;52.588;13.394;2023-07-22T03:38:42;5.10;;;3.30;;
51616;SDS011;37697;52.588;13.394;2023-07-22T03:43:48;4.00;;;3.10;;
51616;SDS011;37697;52.588;13.394;2023-07-22T03:48:53;4.60;;;3.40;;
51616;SDS011;37697;52.588;13.394;2023-07-22T03:53:59;4.30;;;3.20;;
51616;SDS011;37697;52.588;13.394;2023-07-22T03:59:04;3.70;;;3.30;;
51616;SDS011;37697;52.588;13.394;2023-07-22T04:04:10;3.90;;;3.40;;
51616;SDS011;37697;52.588;13.394;2023-07-22T04:09:15;4.30;;;3.40;;
51616;SDS011;37697;52.588;13.394;2023-07-22T04:14:21;4.30;;;3.40;;
51616;SDS011;37697;52.588;13.394;2023-07-22T04:19:26;5.50;;;3.40;;
51616;SDS011;37697;52.588;13.394;2023-07-22T04:24:34;6.10;;;3.80;;
51616;SDS011;37697;52.588;13.394;2023-07-22T04:29:40;5.60;;;4.00;;
51616;SDS011;37697;52.588;13.394;2023-07-22T04:34:46;5.60;;;3.50;;
51616;SDS011;37697;52.588;13.394;2023-07-22T04:39:51;5.80;;;3.20;;
51616;SDS011;37697;52.588;13.394;2023-07-22T04:44:57;3.90;;;3.10;;
51616;SDS011;37697;52.588;13.394;2023-07-22T04:50:02;4.40;;;3.00;;
51616;SDS011;37697;52.588;13.394;2023-07-22T04:55:12;4.40;;;3.50;;
51616;SDS011;37697;52.588;13.394;2023-07-22T05:00:18;5.30;;;3.70;;
51616;SDS011;37697;52.588;13.394;2023-07-22T05:05:24;10.30;;;3.70;;
51616;SDS011;37697;52.588;13.394;2023-07-22T05:10:30;8.10;;;3.40;;
51616;SDS011;37697;52.588;13.394;2023-07-22T05:15:35;5.30;;;3.20;;
51616;SDS011;37697;52.588;13.394;2023-07-22T05:20:41;4.90;;;3.60;;
51616;SDS011;37697;52.588;13.394;2023-07-22T05:25:51;5.20;;;3.50;;
51616;SDS011;37697;52.588;13.394;2023-07-22T05:30:57;7.30;;;4.20;;
51616;SDS011;37697;52.588;13.394;2023-07-22T05:36:04;6.50;;;3.90;;
51616;SDS011;37697;52.588;13.394;2023-07-22T05:41:09;5.20;;;3.50;;
51616;SDS011;37697;52.588;13.394;2023-07-22T05:46:15;6.30;;;3.80;;
51616;SDS011;37697;52.588;13.394;2023-07-22T05:51:20;5.70;;;4.10;;
51616;SDS011;37697;52.588;13.394;2023-07-22T05:56:27;6.40;;;4.50;;
51616;SDS011;37697;52.588;13.394;2023-07-22T06:01:33;8.50;;;5.10;;
51616;SDS011;37697;52.588;13.394;2023-07-22T06:06:38;8.00;;;5.10;;
51616;SDS011;37697;52.588;13.394;2023-07-22T06:11:44;6.50;;;4.90;;
51616;SDS011;37697;52.588;13.394;2023-07-22T06:16:49;6.30;;;4.80;;
51616;SDS011;37697;52.588;13.394;2023-07-22T06:21:55;6.80;;;4.50;;
51616;SDS011;37697;52.588;13.394;2023-07-22T06:27:00;12.20;;;5.20;;
51616;SDS011;37697;52.588;13.394;2023-07-22T06:32:07;8.20;;;5.40;;
51616;SDS011;37697;52.588;13.394;2023-07-22T06:37:13;8.70;;;4.90;;
51616;SDS011;37697;52.588;13.394;2023-07-22T06:42:18;6.80;;;4.20;;
51616;SDS011;37697;52.588;13.394;2023-07-22T06:47:24;6.20;;;4.50;;
51616;SDS011;37697;52.588;13.394;2023-07-22T06:52:29;9.40;;;5.60;;
51616;SDS011;37697;52.588;13.394;2023-07-22T06:57:35;6.80;;;4.60;;
51616;SDS011;37697;52.588;13.394;2023-07-22T07:02:41;6.10;;;3.80;;
51616;SDS011;37697;52.588;13.394;2023-07-22T07:07:47;6.90;;;3.70;;
51616;SDS011;37697;52.588;13.394;2023-07-22T07:12:55;4.90;;;3.30;;
51616;SDS011;37697;52.588;13.394;2023-07-22T07:18:00;5.30;;;3.30;;
51616;SDS011;37697;52.588;13.394;2023-07-22T07:23:06;7.30;;;3.40;;
51616;SDS011;37697;52.588;13.394;2023-07-22T07:28:11;5.50;;;3.50;;
51616;SDS011;37697;52.588;13.394;2023-07-22T07:33:19;6.30;;;3.40;;
51616;SDS011;37697;52.588;13.394;2023-07-22T07:38:24;7.20;;;4.10;;
51616;SDS011;37697;52.588;13.394;2023-07-22T07:43:31;7.70;;;3.50;;
51616;SDS011;37697;52.588;13.394;2023-07-22T07:48:36;5.90;;;3.60;;
51616;SDS011;37697;52.588;13.394;2023-07-22T07:53:42;6.70;;;3.80;;
51616;SDS011;37697;52.588;13.394;2023-07-22T07:58:54;8.60;;;4.20;;
51616;SDS011;37697;52.588;13.394;2023-07-22T08:03:59;5.50;;;3.60;;
51616;SDS011;37697;52.588;13.394;2023-07-22T08:09:05;7.30;;;3.70;;
51616;SDS011;37697;52.588;13.394;2023-07-22T08:14:10;5.80;;;3.90;;
51616;SDS011;37697;52.588;13.394;2023-07-22T08:19:16;6.30;;;3.60;;
51616;SDS011;37697;52.588;13.394;2023-07-22T08:24:21;5.40;;;3.80;;
51616;SDS011;37697;52.588;13.394;2023-07-22T08:29:27;4.90;;;3.60;;
51616;SDS011;37697;52.588;13.394;2023-07-22T08:34:32;7.20;;;4.20;;
51616;SDS011;37697;52.588;13.394;2023-07-22T08:39:38;5.60;;;3.70;;
51616;SDS011;37697;52.588;13.394;2023-07-22T08:44:43;7.40;;;3.80;;
51616;SDS011;37697;52.588;13.394;2023-07-22T08:49:53;6.20;;;3.70;;
51616;SDS011;37697;52.588;13.394;2023-07-22T08:55:05;7.40;;;3.50;;
51616;SDS011;37697;52.588;13.394;2023-07-22T09:00:14;7.20;;;3.50;;
51616;SDS011;37697;52.588;13.394;2023-07-22T09:05:22;7.40;;;3.80;;
51616;SDS011;37697;52.588;13.394;2023-07-22T09:10:28;6.30;;;3.30;;
51616;SDS011;37697;52.588;13.394;2023-07-22T09:15:35;6.10;;;3.60;;
51616;SDS011;37697;52.588;13.394;2023-07-22T09:20:41;5.20;;;3.40;;
51616;SDS011;37697;52.588;13.394;2023-07-22T09:25:47;5.50;;;3.30;;
51616;SDS011;37697;52.588;13.394;2023-07-22T09:30:52;7.20;;;3.40;;
51616;SDS011;37697;52.588;13.394;2023-07-22T09:36:09;5.50;;;3.10;;
51616;SDS011;37697;52.588;13.394;2023-07-22T09:41:16;6.90;;;3.10;;
51616;SDS011;37697;52.588;13.394;2023-07-22T09:46:24;7.70;;;2.80;;
51616;SDS011;37697;52.588;13.394;2023-07-22T09:51:40;5.00;;;2.90;;
51616;SDS011;37697;52.588;13.394;2023-07-22T09:57:04;4.70;;;2.20;;
51616;SDS011;37697;52.588;13.394;2023-07-22T10:02:10;4.30;;;2.50;;
51616;SDS011;37697;52.588;13.394;2023-07-22T10:07:16;5.40;;;2.40;;
51616;SDS011;37697;52.588;13.394;2023-07-22T10:12:23;3.20;;;2.10;;
51616;SDS011;37697;52.588;13.394;2023-07-22T10:17:30;3.00;;;1.80;;
51616;SDS011;37697;52.588;13.394;2023-07-22T10:22:37;2.80;;;1.90;;
51616;SDS011;37697;52.588;13.394;2023-07-22T10:27:44;4.90;;;2.50;;
51616;SDS011;37697;52.588;13.394;2023-07-22T10:32:50;3.10;;;2.20;;
51616;SDS011;37697;52.588;13.394;2023-07-22T10:38:00;3.80;;;2.50;;
51616;SDS011;37697;52.588;13.394;2023-07-22T10:43:14;4.90;;;2.50;;
51616;SDS011;37697;52.588;13.394;2023-07-22T10:53:31;3.80;;;2.30;;
51616;SDS011;37697;52.588;13.394;2023-07-22T10:58:55;3.70;;;2.50;;
51616;SDS011;37697;52.588;13.394;2023-07-22T11:04:08;4.00;;;2.40;;
51616;SDS011;37697;52.588;13.394;2023-07-22T11:09:37;3.30;;;2.30;;
51616;SDS011;37697;52.588;13.394;2023-07-22T11:14:46;4.30;;;2.40;;
51616;SDS011;37697;52.588;13.394;2023-07-22T11:19:53;4.30;;;2.60;;
51616;SDS011;37697;52.588;13.394;2023-07-22T11:25:00;4.90;;;2.40;;
51616;SDS011;37697;52.588;13.394;2023-07-22T11:30:10;4.00;;;2.20;;
51616;SDS011;37697;52.588;13.394;2023-07-22T11:35:16;4.80;;;2.40;;
51616;SDS011;37697;52.588;13.394;2023-07-22T11:40:23;3.30;;;2.10;;
51616;SDS011;37697;52.588;13.394;2023-07-22T11:45:39;3.50;;;2.60;;
51616;SDS011;37697;52.588;13.394;2023-07-22T11:50:45;3.50;;;2.20;;
51616;SDS011;37697;52.588;13.394;2023-07-22T11:55:52;3.90;;;2.60;;
51616;SDS011;37697;52.588;13.394;2023-07-22T12:01:05;3.90;;;2.50;;
51616;SDS011;37697;52.588;13.394;2023-07-22T12:06:14;4.10;;;2.90;;
51616;SDS011;37697;52.588;13.394;2023-07-22T12:11:22;5.30;;;2.90;;
51616;SDS011;37697;52.588;13.394;2023-07-22T12:16:29;4.10;;;2.40;;
51616;SDS011;37697;52.588;13.394;2023-07-22T12:21:35;5.30;;;2.60;;
51616;SDS011;37697;52.588;13.394;2023-07-22T12:26:41;4.40;;;2.70;;
51616;SDS011;37697;52.588;13.394;2023-07-22T12:31:46;4.80;;;3.20;;
51616;SDS011;37697;52.588;13.394;2023-07-22T12:36:52;6.60;;;3.30;;
51616;SDS011;37697;52.588;13.394;2023-07-22T12:41:57;4.10;;;3.00;;
51616;SDS011;37697;52.588;13.394;2023-07-22T12:47:03;4.00;;;2.90;;
51616;SDS011;37697;52.588;13.394;2023-07-22T12:52:08;5.10;;;3.00;;
51616;SDS011;37697;52.588;13.394;2023-07-22T12:57:16;5.70;;;3.40;;
51616;SDS011;37697;52.588;13.394;2023-07-22T13:02:21;6.00;;;3.80;;
51616;SDS011;37697;52.588;13.394;2023-07-22T13:07:26;5.00;;;3.30;;
51616;SDS011;37697;52.588;13.394;2023-07-22T13:12:32;5.70;;;3.60;;
51616;SDS011;37697;52.588;13.394;2023-07-22T13:17:38;5.70;;;3.70;;
51616;SDS011;37697;52.588;13.394;2023-07-22T13:22:43;5.10;;;3.50;;
51616;SDS011;37697;52.588;13.394;2023-07-22T13:27:48;5.00;;;3.50;;
51616;SDS011;37697;52.588;13.394;2023-07-22T13:32:54;4.50;;;3.70;;
51616;SDS011;37697;52.588;13.394;2023-07-22T13:38:00;5.60;;;3.90;;
51616;SDS011;37697;52.588;13.394;2023-07-22T13:43:06;4.10;;;2.70;;
51616;SDS011;37697;52.588;13.394;2023-07-22T13:48:13;5.90;;;3.60;;
51616;SDS011;37697;52.588;13.394;2023-07-22T13:53:19;5.00;;;3.20;;
51616;SDS011;37697;52.588;13.394;2023-07-22T13:58:24;4.50;;;2.90;;
51616;SDS011;37697;52.588;13.394;2023-07-22T14:03:30;4.50;;;3.20;;
51616;SDS011;37697;52.588;13.394;2023-07-22T14:08:35;6.40;;;3.10;;
51616;SDS011;37697;52.588;13.394;2023-07-22T14:13:41;7.50;;;3.60;;
51616;SDS011;37697;52.588;13.394;2023-07-22T14:18:46;7.10;;;3.10;;
51616;SDS011;37697;52.588;13.394;2023-07-22T14:23:52;5.60;;;3.20;;
51616;SDS011;37697;52.588;13.394;2023-07-22T14:28:58;4.70;;;3.10;;
51616;SDS011;37697;52.588;13.394;2023-07-22T14:34:04;4.40;;;2.90;;
51616;SDS011;37697;52.588;13.394;2023-07-22T14:39:09;4.70;;;3.30;;
51616;SDS011;37697;52.588;13.394;2023-07-22T14:44:15;5.10;;;3.50;;
51616;SDS011;37697;52.588;13.394;2023-07-22T14:49:22;3.80;;;3.20;;
51616;SDS011;37697;52.588;13.394;2023-07-22T14:54:27;4.90;;;2.90;;
51616;SDS011;37697;52.588;13.394;2023-07-22T14:59:33;4.30;;;3.40;;
51616;SDS011;37697;52.588;13.394;2023-07-22T15:04:38;5.60;;;3.90;;
51616;SDS011;37697;52.588;13.394;2023-07-22T15:09:43;5.10;;;3.80;;
51616;SDS011;37697;52.588;13.394;2023-07-22T15:14:49;4.30;;;3.10;;
51616;SDS011;37697;52.588;13.394;2023-07-22T15:19:55;5.60;;;3.10;;
51616;SDS011;37697;52.588;13.394;2023-07-22T15:25:00;4.30;;;3.60;;
51616;SDS011;37697;52.588;13.394;2023-07-22T15:30:07;5.20;;;3.80;;
51616;SDS011;37697;52.588;13.394;2023-07-22T15:35:14;5.80;;;3.40;;
51616;SDS011;37697;52.588;13.394;2023-07-22T15:40:19;4.80;;;3.40;;
51616;SDS011;37697;52.588;13.394;2023-07-22T15:45:25;4.50;;;3.60;;
51616;SDS011;37697;52.588;13.394;2023-07-22T15:50:30;5.50;;;3.90;;
51616;SDS011;37697;52.588;13.394;2023-07-22T15:55:37;4.30;;;2.90;;
51616;SDS011;37697;52.588;13.394;2023-07-22T16:00:43;5.00;;;3.20;;
51616;SDS011;37697;52.588;13.394;2023-07-22T16:05:48;4.90;;;3.10;;
51616;SDS011;37697;52.588;13.394;2023-07-22T16:10:53;5.30;;;3.30;;
51616;SDS011;37697;52.588;13.394;2023-07-22T16:15:59;4.40;;;3.20;;
51616;SDS011;37697;52.588;13.394;2023-07-22T16:21:04;5.20;;;3.00;;
51616;SDS011;37697;52.588;13.394;2023-07-22T16:26:12;4.70;;;3.20;;
51616;SDS011;37697;52.588;13.394;2023-07-22T16:31:17;4.00;;;3.00;;
51616;SDS011;37697;52.588;13.394;2023-07-22T16:36:22;4.90;;;3.50;;
51616;SDS011;37697;52.588;13.394;2023-07-22T16:41:28;4.40;;;3.40;;
51616;SDS011;37697;52.588;13.394;2023-07-22T16:46:34;5.70;;;3.50;;
51616;SDS011;37697;52.588;13.394;2023-07-22T16:51:39;6.30;;;3.90;;
51616;SDS011;37697;52.588;13.394;2023-07-22T16:56:44;5.90;;;3.60;;
51616;SDS011;37697;52.588;13.394;2023-07-22T17:01:50;4.50;;;3.20;;
51616;SDS011;37697;52.588;13.394;2023-07-22T17:06:55;4.60;;;3.30;;
51616;SDS011;37697;52.588;13.394;2023-07-22T17:12:04;5.00;;;3.90;;
51616;SDS011;37697;52.588;13.394;2023-07-22T17:17:11;4.60;;;3.50;;
51616;SDS011;37697;52.588;13.394;2023-07-22T17:22:16;5.10;;;3.80;;
51616;SDS011;37697;52.588;13.394;2023-07-22T17:27:22;5.00;;;3.60;;
51616;SDS011;37697;52.588;13.394;2023-07-22T17:32:27;4.60;;;3.20;;
51616;SDS011;37697;52.588;13.394;2023-07-22T17:37:33;5.50;;;3.60;;
51616;SDS011;37697;52.588;13.394;2023-07-22T17:42:38;4.50;;;3.70;;
51616;SDS011;37697;52.588;13.394;2023-07-22T17:47:44;4.40;;;3.50;;
51616;SDS011;37697;52.588;13.394;2023-07-22T17:52:49;4.40;;;3.60;;
51616;SDS011;37697;52.588;13.394;2023-07-22T17:57:55;4.80;;;3.30;;
51616;SDS011;37697;52.588;13.394;2023-07-22T18:03:00;5.10;;;3.60;;
51616;SDS011;37697;52.588;13.394;2023-07-22T18:08:06;5.30;;;3.30;;
51616;SDS011;37697;52.588;13.394;2023-07-22T18:13:11;4.30;;;3.20;;
51616;SDS011;37697;52.588;13.394;2023-07-22T18:18:17;7.10;;;3.50;;
51616;SDS011;37697;52.588;13.394;2023-07-22T18:23:22;4.50;;;3.40;;
51616;SDS011;37697;52.588;13.394;2023-07-22T18:28:28;5.40;;;3.70;;
51616;SDS011;37697;52.588;13.394;2023-07-22T18:33:34;4.70;;;3.70;;
51616;SDS011;37697;52.588;13.394;2023-07-22T18:38:40;5.00;;;3.90;;
51616;SDS011;37697;52.588;13.394;2023-07-22T18:43:49;4.90;;;3.60;;
51616;SDS011;37697;52.588;13.394;2023-07-22T18:48:54;5.10;;;3.70;;
51616;SDS011;37697;52.588;13.394;2023-07-22T18:54:00;4.70;;;3.80;;
51616;SDS011;37697;52.588;13.394;2023-07-22T18:59:06;5.30;;;4.20;;
51616;SDS011;37697;52.588;13.394;2023-07-22T19:04:11;5.80;;;4.20;;
51616;SDS011;37697;52.588;13.394;2023-07-22T19:09:17;5.90;;;4.20;;
51616;SDS011;37697;52.588;13.394;2023-07-22T19:14:23;6.20;;;4.40;;
51616;SDS011;37697;52.588;13.394;2023-07-22T19:19:28;5.00;;;4.40;;
51616;SDS011;37697;52.588;13.394;2023-07-22T19:24:34;6.60;;;4.40;;
51616;SDS011;37697;52.588;13.394;2023-07-22T19:29:39;6.40;;;4.80;;
51616;SDS011;37697;52.588;13.394;2023-07-22T19:34:45;5.20;;;4.40;;
51616;SDS011;37697;52.588;13.394;2023-07-22T19:39:51;6.10;;;4.60;;
51616;SDS011;37697;52.588;13.394;2023-07-22T19:44:56;5.70;;;4.90;;
51616;SDS011;37697;52.588;13.394;2023-07-22T19:50:02;8.00;;;5.60;;
51616;SDS011;37697;52.588;13.394;2023-07-22T19:55:08;6.50;;;5.20;;
51616;SDS011;37697;52.588;13.394;2023-07-22T20:00:13;9.20;;;7.30;;
51616;SDS011;37697;52.588;13.394;2023-07-22T20:05:19;9.50;;;6.80;;
51616;SDS011;37697;52.588;13.394;2023-07-22T20:10:24;9.20;;;7.10;;
51616;SDS011;37697;52.588;13.394;2023-07-22T20:15:33;8.20;;;7.00;;
51616;SDS011;37697;52.588;13.394;2023-07-22T20:20:39;8.40;;;6.80;;
51616;SDS011;37697;52.588;13.394;2023-07-22T20:25:45;11.10;;;7.30;;
51616;SDS011;37697;52.588;13.394;2023-07-22T20:30:50;8.60;;;7.30;;
51616;SDS011;37697;52.588;13.394;2023-07-22T20:35:58;9.10;;;7.10;;
51616;SDS011;37697;52.588;13.394;2023-07-22T20:41:04;8.30;;;6.80;;
51616;SDS011;37697;52.588;13.394;2023-07-22T20:46:10;10.10;;;7.80;;
51616;SDS011;37697;52.588;13.394;2023-07-22T20:51:16;11.20;;;8.40;;
51616;SDS011;37697;52.588;13.394;2023-07-22T20:56:23;9.40;;;7.60;;
51616;SDS011;37697;52.588;13.394;2023-07-22T21:01:30;9.90;;;7.80;;
51616;SDS011;37697;52.588;13.394;2023-07-22T21:06:35;8.80;;;7.70;;
51616;SDS011;37697;52.588;13.394;2023-07-22T21:11:41;9.70;;;7.90;;
51616;SDS011;37697;52.588;13.394;2023-07-22T21:16:46;9.80;;;7.10;;
51616;SDS011;37697;52.588;13.394;2023-07-22T21:21:52;11.20;;;7.90;;
51616;SDS011;37697;52.588;13.394;2023-07-22T21:26:57;14.90;;;9.60;;
51616;SDS011;37697;52.588;13.394;2023-07-22T21:32:03;10.10;;;8.50;;
51616;SDS011;37697;52.588;13.394;2023-07-22T21:37:09;10.40;;;8.30;;
51616;SDS011;37697;52.588;13.394;2023-07-22T21:42:15;11.40;;;8.90;;
51616;SDS011;37697;52.588;13.394;2023-07-22T21:47:20;9.00;;;8.00;;
51616;SDS011;37697;52.588;13.394;2023-07-22T21:52:26;9.70;;;7.60;;
51616;SDS011;37697;52.588;13.394;2023-07-22T21:57:31;9.80;;;7.40;;
51616;SDS011;37697;52.588;13.394;2023-07-22T22:02:37;10.70;;;7.50;;
51616;SDS011;37697;52.588;13.394;2023-07-22T22:07:43;10.20;;;7.90;;
51616;SDS011;37697;52.588;13.394;2023-07-22T22:12:52;9.10;;;7.50;;
51616;SDS011;37697;52.588;13.394;2023-07-22T22:17:57;8.80;;;6.90;;
51616;SDS011;37697;52.588;13.394;2023-07-22T22:23:04;8.40;;;6.30;;
51616;SDS011;37697;52.588;13.394;2023-07-22T22:28:11;7.20;;;6.20;;
51616;SDS011;37697;52.588;13.394;2023-07-22T22:33:16;7.90;;;5.90;;
51616;SDS011;37697;52.588;13.394;2023-07-22T22:38:22;7.60;;;5.70;;
51616;SDS011;37697;52.588;13.394;2023-07-22T22:43:27;7.50;;;5.80;;
51616;SDS011;37697;52.588;13.394;2023-07-22T22:48:33;6.60;;;5.30;;
51616;SDS011;37697;52.588;13.394;2023-07-22T22:53:38;7.10;;;5.50;;
51616;SDS011;37697;52.588;13.394;2023-07-22T22:58:44;9.10;;;5.80;;
51616;SDS011;37697;52.588;13.394;2023-07-22T23:03:49;7.40;;;5.00;;
51616;SDS011;37697;52.588;13.394;2023-07-22T23:08:55;7.10;;;5.00;;
51616;SDS011;37697;52.588;13.394;2023-07-22T23:14:00;7.10;;;4.50;;
51616;SDS011;37697;52.588;13.394;2023-07-22T23:19:05;6.90;;;4.70;;
51616;SDS011;37697;52.588;13.394;2023-07-22T23:24:11;8.20;;;5.30;;
51616;SDS011;37697;52.588;13.394;2023-07-22T23:29:16;5.80;;;4.60;;
51616;SDS011;37697;52.588;13.394;2023-07-22T23:34:22;6.10;;;4.70;;
51616;SDS011;37697;52.588;13.394;2023-07-22T23:39:27;7.10;;;4.60;;
51616;SDS011;37697;52.588;13.394;2023-07-22T23:44:33;6.00;;;4.50;;
51616;SDS011;37697;52.588;13.394;2023-07-22T23:49:40;6.10;;;4.80;;
51616;SDS011;37697;52.588;13.394;2023-07-22T23:54:45;6.30;;;4.40;;
51616;SDS011;37697;52.588;13.394;2023-07-22T23:59:51;6.30;;;4.40;;
